sensor_id;sensor_type;location;lat;lon;timestamp;P1;durP1;ratioP1;P2;durP2;ratioP2
15929;SDS011;8064;51.142;4.780;2023-05-02T00:00:12;27.33;;;23.57;;
15929;SDS011;8064;51.142;4.780;2023-05-02T00:02:38;33.43;;;25.70;;
15929;SDS011;8064;51.142;4.780;2023-05-02T00:05:04;28.10;;;24.77;;
15929;SDS011;8064;51.142;4.780;2023-05-02T00:07:31;30.27;;;25.70;;
15929;SDS011;8064;51.142;4.780;2023-05-02T00:09:57;33.17;;;27.27;;
15929;SDS011;8064;51.142;4.780;2023-05-02T00:12:24;35.07;;;27.03;;
15929;SDS011;8064;51.142;4.780;2023-05-02T00:14:50;31.07;;;26.60;;
15929;SDS011;8064;51.142;4.780;2023-05-02T00:17:16;30.53;;;26.40;;
15929;SDS011;8064;51.142;4.780;2023-05-02T00:19:43;30.23;;;26.57;;
15929;SDS011;8064;51.142;4.780;2023-05-02T00:22:09;31.93;;;26.60;;
15929;SDS011;8064;51.142;4.780;2023-05-02T00:24:35;33.07;;;26.70;;
15929;SDS011;8064;51.142;4.780;2023-05-02T00:27:00;35.00;;;27.00;;
15929;SDS011;8064;51.142;4.780;2023-05-02T00:29:26;33.40;;;27.00;;
15929;SDS011;8064;51.142;4.780;2023-05-02T00:31:52;34.10;;;26.43;;
15929;SDS011;8064;51.142;4.780;2023-05-02T00:34:18;32.07;;;26.33;;
15929;SDS011;8064;51.142;4.780;2023-05-02T00:36:43;29.30;;;25.53;;
15929;SDS011;8064;51.142;4.780;2023-05-02T00:39:09;30.33;;;26.20;;
15929;SDS011;8064;51.142;4.780;2023-05-02T00:41:35;29.97;;;25.43;;
15929;SDS011;8064;51.142;4.780;2023-05-02T00:44:01;30.50;;;24.83;;
15929;SDS011;8064;51.142;4.780;2023-05-02T00:46:27;28.70;;;25.60;;
15929;SDS011;8064;51.142;4.780;2023-05-02T00:48:53;30.77;;;25.93;;
15929;SDS011;8064;51.142;4.780;2023-05-02T00:51:19;33.13;;;27.20;;
15929;SDS011;8064;51.142;4.780;2023-05-02T00:53:45;32.60;;;25.53;;
15929;SDS011;8064;51.142;4.780;2023-05-02T00:56:11;29.70;;;25.07;;
15929;SDS011;8064;51.142;4.780;2023-05-02T00:58:37;31.73;;;25.90;;
15929;SDS011;8064;51.142;4.780;2023-05-02T01:06:52;28.30;;;25.07;;
15929;SDS011;8064;51.142;4.780;2023-05-02T01:12:10;27.10;;;23.57;;
15929;SDS011;8064;51.142;4.780;2023-05-02T01:14:58;28.83;;;22.90;;
15929;SDS011;8064;51.142;4.780;2023-05-02T01:17:29;27.50;;;24.60;;
15929;SDS011;8064;51.142;4.780;2023-05-02T01:19:57;25.17;;;22.13;;
15929;SDS011;8064;51.142;4.780;2023-05-02T01:22:27;29.70;;;24.70;;
15929;SDS011;8064;51.142;4.780;2023-05-02T01:30:43;25.10;;;22.40;;
15929;SDS011;8064;51.142;4.780;2023-05-02T01:33:13;26.37;;;23.33;;
15929;SDS011;8064;51.142;4.780;2023-05-02T01:35:41;25.73;;;22.67;;
15929;SDS011;8064;51.142;4.780;2023-05-02T01:38:08;26.43;;;23.63;;
15929;SDS011;8064;51.142;4.780;2023-05-02T01:40:39;27.30;;;22.33;;
15929;SDS011;8064;51.142;4.780;2023-05-02T01:43:09;26.17;;;22.50;;
15929;SDS011;8064;51.142;4.780;2023-05-02T01:45:36;27.37;;;24.17;;
15929;SDS011;8064;51.142;4.780;2023-05-02T01:48:04;27.10;;;24.23;;
15929;SDS011;8064;51.142;4.780;2023-05-02T01:50:31;27.20;;;24.33;;
15929;SDS011;8064;51.142;4.780;2023-05-02T01:52:58;29.20;;;23.27;;
15929;SDS011;8064;51.142;4.780;2023-05-02T01:55:27;26.67;;;23.87;;
15929;SDS011;8064;51.142;4.780;2023-05-02T01:57:53;26.53;;;23.73;;
15929;SDS011;8064;51.142;4.780;2023-05-02T02:00:20;26.73;;;23.97;;
15929;SDS011;8064;51.142;4.780;2023-05-02T02:02:48;26.30;;;23.60;;
15929;SDS011;8064;51.142;4.780;2023-05-02T02:05:16;27.10;;;24.20;;
15929;SDS011;8064;51.142;4.780;2023-05-02T02:07:44;27.50;;;24.60;;
15929;SDS011;8064;51.142;4.780;2023-05-02T02:10:10;29.97;;;26.43;;
15929;SDS011;8064;51.142;4.780;2023-05-02T02:17:42;28.80;;;24.53;;
15929;SDS011;8064;51.142;4.780;2023-05-02T02:20:14;28.53;;;25.20;;
15929;SDS011;8064;51.142;4.780;2023-05-02T02:22:41;27.23;;;24.17;;
15929;SDS011;8064;51.142;4.780;2023-05-02T02:25:10;25.97;;;22.43;;
15929;SDS011;8064;51.142;4.780;2023-05-02T02:27:37;25.27;;;22.63;;
15929;SDS011;8064;51.142;4.780;2023-05-02T02:30:04;24.13;;;21.67;;
15929;SDS011;8064;51.142;4.780;2023-05-02T02:32:31;24.77;;;22.27;;
15929;SDS011;8064;51.142;4.780;2023-05-02T02:34:56;25.50;;;22.80;;
15929;SDS011;8064;51.142;4.780;2023-05-02T02:40:11;24.00;;;21.47;;
15929;SDS011;8064;51.142;4.780;2023-05-02T02:43:02;26.07;;;23.27;;
15929;SDS011;8064;51.142;4.780;2023-05-02T02:48:28;24.93;;;22.27;;
15929;SDS011;8064;51.142;4.780;2023-05-02T02:53:29;23.87;;;21.37;;
15929;SDS011;8064;51.142;4.780;2023-05-02T02:56:08;25.30;;;22.40;;
15929;SDS011;8064;51.142;4.780;2023-05-02T02:58:44;25.87;;;22.67;;
15929;SDS011;8064;51.142;4.780;2023-05-02T03:01:19;26.30;;;21.87;;
15929;SDS011;8064;51.142;4.780;2023-05-02T03:03:47;25.23;;;22.37;;
15929;SDS011;8064;51.142;4.780;2023-05-02T03:06:14;24.53;;;21.93;;
15929;SDS011;8064;51.142;4.780;2023-05-02T03:08:42;24.40;;;21.77;;
15929;SDS011;8064;51.142;4.780;2023-05-02T03:11:08;26.13;;;20.57;;
15929;SDS011;8064;51.142;4.780;2023-05-02T03:13:34;28.33;;;21.73;;
15929;SDS011;8064;51.142;4.780;2023-05-02T03:18:36;24.20;;;20.53;;
15929;SDS011;8064;51.142;4.780;2023-05-02T03:21:02;26.43;;;21.63;;
15929;SDS011;8064;51.142;4.780;2023-05-02T03:23:28;24.43;;;21.83;;
15929;SDS011;8064;51.142;4.780;2023-05-02T03:25:54;23.23;;;20.83;;
15929;SDS011;8064;51.142;4.780;2023-05-02T03:28:19;23.73;;;21.17;;
15929;SDS011;8064;51.142;4.780;2023-05-02T03:30:45;25.47;;;22.23;;
15929;SDS011;8064;51.142;4.780;2023-05-02T03:33:11;24.97;;;22.17;;
15929;SDS011;8064;51.142;4.780;2023-05-02T03:35:37;26.30;;;22.30;;
15929;SDS011;8064;51.142;4.780;2023-05-02T03:38:02;24.87;;;22.17;;
15929;SDS011;8064;51.142;4.780;2023-05-02T03:40:28;24.97;;;22.17;;
15929;SDS011;8064;51.142;4.780;2023-05-02T03:42:54;24.37;;;21.50;;
15929;SDS011;8064;51.142;4.780;2023-05-02T03:45:20;24.57;;;22.00;;
15929;SDS011;8064;51.142;4.780;2023-05-02T03:47:45;24.87;;;22.17;;
15929;SDS011;8064;51.142;4.780;2023-05-02T03:50:11;25.03;;;22.37;;
15929;SDS011;8064;51.142;4.780;2023-05-02T03:52:37;25.37;;;22.63;;
15929;SDS011;8064;51.142;4.780;2023-05-02T03:55:03;24.17;;;21.70;;
15929;SDS011;8064;51.142;4.780;2023-05-02T03:57:30;22.43;;;20.13;;
15929;SDS011;8064;51.142;4.780;2023-05-02T03:59:55;24.23;;;21.83;;
15929;SDS011;8064;51.142;4.780;2023-05-02T04:02:21;24.03;;;21.50;;
15929;SDS011;8064;51.142;4.780;2023-05-02T04:04:47;24.57;;;22.07;;
15929;SDS011;8064;51.142;4.780;2023-05-02T04:07:13;24.63;;;21.97;;
15929;SDS011;8064;51.142;4.780;2023-05-02T04:09:43;26.30;;;23.67;;
15929;SDS011;8064;51.142;4.780;2023-05-02T04:12:09;25.13;;;22.53;;
15929;SDS011;8064;51.142;4.780;2023-05-02T04:14:35;26.10;;;23.37;;
15929;SDS011;8064;51.142;4.780;2023-05-02T04:17:01;29.67;;;23.23;;
15929;SDS011;8064;51.142;4.780;2023-05-02T04:19:27;25.97;;;23.17;;
15929;SDS011;8064;51.142;4.780;2023-05-02T04:21:52;27.30;;;24.30;;
15929;SDS011;8064;51.142;4.780;2023-05-02T04:24:18;25.47;;;22.77;;
15929;SDS011;8064;51.142;4.780;2023-05-02T04:26:44;25.60;;;22.90;;
15929;SDS011;8064;51.142;4.780;2023-05-02T04:29:11;27.60;;;23.23;;
15929;SDS011;8064;51.142;4.780;2023-05-02T04:31:37;26.57;;;22.90;;
15929;SDS011;8064;51.142;4.780;2023-05-02T04:34:05;26.13;;;23.53;;
15929;SDS011;8064;51.142;4.780;2023-05-02T04:36:31;25.93;;;23.10;;
15929;SDS011;8064;51.142;4.780;2023-05-02T04:38:58;25.70;;;22.93;;
15929;SDS011;8064;51.142;4.780;2023-05-02T04:41:24;24.93;;;22.30;;
15929;SDS011;8064;51.142;4.780;2023-05-02T04:43:50;23.73;;;21.30;;
15929;SDS011;8064;51.142;4.780;2023-05-02T04:46:16;24.00;;;21.43;;
15929;SDS011;8064;51.142;4.780;2023-05-02T04:48:42;25.23;;;22.23;;
15929;SDS011;8064;51.142;4.780;2023-05-02T04:51:08;25.03;;;22.20;;
15929;SDS011;8064;51.142;4.780;2023-05-02T04:53:34;25.03;;;22.33;;
15929;SDS011;8064;51.142;4.780;2023-05-02T04:56:01;25.53;;;21.33;;
15929;SDS011;8064;51.142;4.780;2023-05-02T04:58:27;24.93;;;22.33;;
15929;SDS011;8064;51.142;4.780;2023-05-02T05:00:52;25.07;;;21.23;;
15929;SDS011;8064;51.142;4.780;2023-05-02T05:03:19;27.33;;;23.07;;
15929;SDS011;8064;51.142;4.780;2023-05-02T05:05:45;24.37;;;21.93;;
15929;SDS011;8064;51.142;4.780;2023-05-02T05:08:11;26.90;;;21.97;;
15929;SDS011;8064;51.142;4.780;2023-05-02T05:10:37;25.13;;;22.50;;
15929;SDS011;8064;51.142;4.780;2023-05-02T05:13:04;23.53;;;20.70;;
15929;SDS011;8064;51.142;4.780;2023-05-02T05:15:31;24.07;;;20.87;;
15929;SDS011;8064;51.142;4.780;2023-05-02T05:17:56;23.37;;;20.37;;
15929;SDS011;8064;51.142;4.780;2023-05-02T05:20:23;28.37;;;19.83;;
15929;SDS011;8064;51.142;4.780;2023-05-02T05:22:48;22.47;;;19.17;;
15929;SDS011;8064;51.142;4.780;2023-05-02T05:25:14;20.50;;;18.40;;
15929;SDS011;8064;51.142;4.780;2023-05-02T05:27:40;21.50;;;18.13;;
15929;SDS011;8064;51.142;4.780;2023-05-02T05:30:06;21.37;;;16.80;;
15929;SDS011;8064;51.142;4.780;2023-05-02T05:32:33;19.87;;;17.23;;
15929;SDS011;8064;51.142;4.780;2023-05-02T05:34:59;20.67;;;15.97;;
15929;SDS011;8064;51.142;4.780;2023-05-02T05:37:25;18.67;;;16.33;;
15929;SDS011;8064;51.142;4.780;2023-05-02T05:39:51;18.40;;;15.50;;
15929;SDS011;8064;51.142;4.780;2023-05-02T05:42:17;14.93;;;13.37;;
15929;SDS011;8064;51.142;4.780;2023-05-02T05:44:42;14.73;;;12.07;;
15929;SDS011;8064;51.142;4.780;2023-05-02T05:47:08;13.53;;;12.07;;
15929;SDS011;8064;51.142;4.780;2023-05-02T05:49:34;11.60;;;10.07;;
15929;SDS011;8064;51.142;4.780;2023-05-02T05:52:00;11.03;;;9.93;;
15929;SDS011;8064;51.142;4.780;2023-05-02T05:54:26;11.77;;;9.50;;
15929;SDS011;8064;51.142;4.780;2023-05-02T05:56:52;11.20;;;8.93;;
15929;SDS011;8064;51.142;4.780;2023-05-02T05:59:18;9.10;;;8.20;;
15929;SDS011;8064;51.142;4.780;2023-05-02T06:01:44;10.23;;;9.03;;
15929;SDS011;8064;51.142;4.780;2023-05-02T06:04:10;9.23;;;8.00;;
15929;SDS011;8064;51.142;4.780;2023-05-02T06:06:36;11.87;;;7.93;;
15929;SDS011;8064;51.142;4.780;2023-05-02T06:09:02;8.63;;;7.70;;
15929;SDS011;8064;51.142;4.780;2023-05-02T06:11:28;8.67;;;7.90;;
15929;SDS011;8064;51.142;4.780;2023-05-02T06:13:54;8.73;;;7.93;;
15929;SDS011;8064;51.142;4.780;2023-05-02T06:16:20;9.13;;;8.20;;
15929;SDS011;8064;51.142;4.780;2023-05-02T06:18:46;7.53;;;6.83;;
15929;SDS011;8064;51.142;4.780;2023-05-02T06:21:12;7.93;;;7.13;;
15929;SDS011;8064;51.142;4.780;2023-05-02T06:23:37;8.27;;;7.53;;
15929;SDS011;8064;51.142;4.780;2023-05-02T06:26:03;8.47;;;6.70;;
15929;SDS011;8064;51.142;4.780;2023-05-02T06:28:30;7.97;;;7.27;;
15929;SDS011;8064;51.142;4.780;2023-05-02T06:33:23;7.60;;;6.87;;
15929;SDS011;8064;51.142;4.780;2023-05-02T06:35:50;8.40;;;6.30;;
15929;SDS011;8064;51.142;4.780;2023-05-02T06:38:17;7.17;;;6.50;;
15929;SDS011;8064;51.142;4.780;2023-05-02T06:40:43;7.23;;;6.20;;
15929;SDS011;8064;51.142;4.780;2023-05-02T06:43:09;7.23;;;6.30;;
15929;SDS011;8064;51.142;4.780;2023-05-02T06:45:36;7.60;;;6.90;;
15929;SDS011;8064;51.142;4.780;2023-05-02T06:48:02;8.07;;;6.13;;
15929;SDS011;8064;51.142;4.780;2023-05-02T06:50:28;9.40;;;6.10;;
15929;SDS011;8064;51.142;4.780;2023-05-02T06:52:54;7.40;;;6.70;;
15929;SDS011;8064;51.142;4.780;2023-05-02T06:55:20;6.73;;;6.10;;
15929;SDS011;8064;51.142;4.780;2023-05-02T06:57:47;7.40;;;6.60;;
15929;SDS011;8064;51.142;4.780;2023-05-02T07:00:15;7.60;;;6.23;;
15929;SDS011;8064;51.142;4.780;2023-05-02T07:02:42;6.70;;;6.10;;
15929;SDS011;8064;51.142;4.780;2023-05-02T07:05:09;6.83;;;5.80;;
15929;SDS011;8064;51.142;4.780;2023-05-02T07:07:35;8.67;;;5.30;;
15929;SDS011;8064;51.142;4.780;2023-05-02T07:10:02;6.13;;;5.57;;
15929;SDS011;8064;51.142;4.780;2023-05-02T07:12:28;6.23;;;5.67;;
15929;SDS011;8064;51.142;4.780;2023-05-02T07:14:54;7.33;;;5.20;;
15929;SDS011;8064;51.142;4.780;2023-05-02T07:17:20;7.20;;;5.87;;
15929;SDS011;8064;51.142;4.780;2023-05-02T07:19:46;7.47;;;6.17;;
15929;SDS011;8064;51.142;4.780;2023-05-02T07:22:12;6.37;;;5.73;;
15929;SDS011;8064;51.142;4.780;2023-05-02T07:24:39;6.77;;;5.40;;
15929;SDS011;8064;51.142;4.780;2023-05-02T07:27:07;6.77;;;4.97;;
15929;SDS011;8064;51.142;4.780;2023-05-02T07:29:33;7.40;;;5.23;;
15929;SDS011;8064;51.142;4.780;2023-05-02T07:31:59;8.57;;;4.80;;
15929;SDS011;8064;51.142;4.780;2023-05-02T07:34:25;6.00;;;4.53;;
15929;SDS011;8064;51.142;4.780;2023-05-02T07:36:51;5.57;;;5.07;;
15929;SDS011;8064;51.142;4.780;2023-05-02T07:39:17;7.70;;;5.53;;
15929;SDS011;8064;51.142;4.780;2023-05-02T07:41:43;6.37;;;5.77;;
15929;SDS011;8064;51.142;4.780;2023-05-02T07:44:08;8.33;;;4.73;;
15929;SDS011;8064;51.142;4.780;2023-05-02T07:46:35;5.63;;;5.10;;
15929;SDS011;8064;51.142;4.780;2023-05-02T07:49:01;8.13;;;5.67;;
15929;SDS011;8064;51.142;4.780;2023-05-02T07:51:26;7.00;;;5.53;;
15929;SDS011;8064;51.142;4.780;2023-05-02T07:53:52;6.77;;;6.07;;
15929;SDS011;8064;51.142;4.780;2023-05-02T07:56:19;10.07;;;6.40;;
15929;SDS011;8064;51.142;4.780;2023-05-02T07:58:45;7.30;;;5.83;;
15929;SDS011;8064;51.142;4.780;2023-05-02T08:01:11;6.63;;;5.50;;
15929;SDS011;8064;51.142;4.780;2023-05-02T08:03:37;5.83;;;5.40;;
15929;SDS011;8064;51.142;4.780;2023-05-02T08:06:03;7.30;;;5.40;;
15929;SDS011;8064;51.142;4.780;2023-05-02T08:08:28;7.63;;;5.93;;
15929;SDS011;8064;51.142;4.780;2023-05-02T08:10:54;5.83;;;5.27;;
15929;SDS011;8064;51.142;4.780;2023-05-02T08:13:20;6.10;;;4.97;;
15929;SDS011;8064;51.142;4.780;2023-05-02T08:15:46;6.07;;;5.50;;
15929;SDS011;8064;51.142;4.780;2023-05-02T08:18:11;7.83;;;5.63;;
15929;SDS011;8064;51.142;4.780;2023-05-02T08:20:37;5.03;;;4.70;;
15929;SDS011;8064;51.142;4.780;2023-05-02T08:23:03;5.83;;;5.20;;
15929;SDS011;8064;51.142;4.780;2023-05-02T08:25:28;6.37;;;5.47;;
15929;SDS011;8064;51.142;4.780;2023-05-02T08:27:54;6.53;;;5.87;;
15929;SDS011;8064;51.142;4.780;2023-05-02T08:30:20;7.17;;;5.40;;
15929;SDS011;8064;51.142;4.780;2023-05-02T08:32:46;7.33;;;5.93;;
15929;SDS011;8064;51.142;4.780;2023-05-02T08:35:11;7.13;;;5.70;;
15929;SDS011;8064;51.142;4.780;2023-05-02T08:37:38;8.03;;;5.73;;
15929;SDS011;8064;51.142;4.780;2023-05-02T08:40:04;6.97;;;5.80;;
15929;SDS011;8064;51.142;4.780;2023-05-02T08:42:31;9.93;;;5.97;;
15929;SDS011;8064;51.142;4.780;2023-05-02T08:44:57;6.97;;;5.80;;
15929;SDS011;8064;51.142;4.780;2023-05-02T08:47:23;9.57;;;6.10;;
15929;SDS011;8064;51.142;4.780;2023-05-02T08:49:52;8.53;;;6.33;;
15929;SDS011;8064;51.142;4.780;2023-05-02T08:52:19;7.10;;;5.40;;
15929;SDS011;8064;51.142;4.780;2023-05-02T08:54:46;6.47;;;5.73;;
15929;SDS011;8064;51.142;4.780;2023-05-02T08:57:15;7.73;;;5.90;;
15929;SDS011;8064;51.142;4.780;2023-05-02T08:59:41;8.87;;;6.17;;
15929;SDS011;8064;51.142;4.780;2023-05-02T09:02:11;8.33;;;6.50;;
15929;SDS011;8064;51.142;4.780;2023-05-02T09:05:05;8.97;;;6.50;;
15929;SDS011;8064;51.142;4.780;2023-05-02T09:07:43;8.40;;;6.33;;
15929;SDS011;8064;51.142;4.780;2023-05-02T09:10:11;7.03;;;6.30;;
15929;SDS011;8064;51.142;4.780;2023-05-02T09:12:37;6.93;;;5.70;;
15929;SDS011;8064;51.142;4.780;2023-05-02T09:17:47;8.93;;;5.20;;
15929;SDS011;8064;51.142;4.780;2023-05-02T09:20:14;6.07;;;5.50;;
15929;SDS011;8064;51.142;4.780;2023-05-02T09:22:46;6.20;;;5.63;;
15929;SDS011;8064;51.142;4.780;2023-05-02T09:25:14;8.40;;;5.73;;
15929;SDS011;8064;51.142;4.780;2023-05-02T09:27:52;6.93;;;5.83;;
15929;SDS011;8064;51.142;4.780;2023-05-02T09:32:48;6.53;;;5.70;;
15929;SDS011;8064;51.142;4.780;2023-05-02T09:35:16;6.97;;;5.43;;
15929;SDS011;8064;51.142;4.780;2023-05-02T09:37:49;6.90;;;4.97;;
15929;SDS011;8064;51.142;4.780;2023-05-02T09:40:16;9.30;;;5.70;;
15929;SDS011;8064;51.142;4.780;2023-05-02T09:42:42;8.07;;;5.30;;
15929;SDS011;8064;51.142;4.780;2023-05-02T09:45:07;5.20;;;4.50;;
15929;SDS011;8064;51.142;4.780;2023-05-02T09:47:43;13.43;;;5.40;;
15929;SDS011;8064;51.142;4.780;2023-05-02T09:50:09;6.90;;;4.70;;
15929;SDS011;8064;51.142;4.780;2023-05-02T09:52:35;5.23;;;4.70;;
15929;SDS011;8064;51.142;4.780;2023-05-02T09:55:07;5.00;;;4.60;;
15929;SDS011;8064;51.142;4.780;2023-05-02T09:57:46;6.77;;;5.33;;
15929;SDS011;8064;51.142;4.780;2023-05-02T10:00:13;9.87;;;4.90;;
15929;SDS011;8064;51.142;4.780;2023-05-02T10:02:43;6.30;;;4.87;;
15929;SDS011;8064;51.142;4.780;2023-05-02T10:05:11;5.67;;;5.07;;
15929;SDS011;8064;51.142;4.780;2023-05-02T10:07:39;7.10;;;4.70;;
15929;SDS011;8064;51.142;4.780;2023-05-02T10:10:14;8.37;;;5.40;;
15929;SDS011;8064;51.142;4.780;2023-05-02T10:12:44;12.33;;;5.40;;
15929;SDS011;8064;51.142;4.780;2023-05-02T10:15:12;5.03;;;4.53;;
15929;SDS011;8064;51.142;4.780;2023-05-02T10:17:42;5.47;;;4.97;;
15929;SDS011;8064;51.142;4.780;2023-05-02T10:20:13;5.63;;;5.10;;
15929;SDS011;8064;51.142;4.780;2023-05-02T10:22:44;7.85;;;5.10;;
15929;SDS011;8064;51.142;4.780;2023-05-02T10:25:11;7.53;;;5.20;;
15929;SDS011;8064;51.142;4.780;2023-05-02T10:27:37;5.60;;;5.00;;
15929;SDS011;8064;51.142;4.780;2023-05-02T10:30:04;8.23;;;5.13;;
15929;SDS011;8064;51.142;4.780;2023-05-02T10:32:31;6.00;;;5.37;;
15929;SDS011;8064;51.142;4.780;2023-05-02T10:35:10;7.50;;;5.50;;
15929;SDS011;8064;51.142;4.780;2023-05-02T10:37:37;7.35;;;5.82;;
15929;SDS011;8064;51.142;4.780;2023-05-02T10:42:50;9.18;;;5.70;;
15929;SDS011;8064;51.142;4.780;2023-05-02T10:45:29;7.20;;;5.60;;
15929;SDS011;8064;51.142;4.780;2023-05-02T10:50:44;6.65;;;5.97;;
15929;SDS011;8064;51.142;4.780;2023-05-02T10:58:48;9.02;;;5.93;;
15929;SDS011;8064;51.142;4.780;2023-05-02T11:04:03;6.75;;;6.15;;
15929;SDS011;8064;51.142;4.780;2023-05-02T11:06:31;7.17;;;5.53;;
15929;SDS011;8064;51.142;4.780;2023-05-02T11:12:03;6.95;;;6.00;;
15929;SDS011;8064;51.142;4.780;2023-05-02T11:17:14;7.22;;;6.53;;
15929;SDS011;8064;51.142;4.780;2023-05-02T11:20:17;6.82;;;6.00;;
15929;SDS011;8064;51.142;4.780;2023-05-02T11:25:27;8.23;;;6.10;;
15929;SDS011;8064;51.142;4.780;2023-05-02T11:27:54;8.33;;;6.50;;
15929;SDS011;8064;51.142;4.780;2023-05-02T11:35:33;6.47;;;5.97;;
15929;SDS011;8064;51.142;4.780;2023-05-02T11:40:28;6.82;;;6.03;;
15929;SDS011;8064;51.142;4.780;2023-05-02T11:42:55;6.35;;;5.75;;
15929;SDS011;8064;51.142;4.780;2023-05-02T11:45:33;8.20;;;6.23;;
15929;SDS011;8064;51.142;4.780;2023-05-02T11:48:01;6.23;;;5.60;;
15929;SDS011;8064;51.142;4.780;2023-05-02T11:50:29;6.35;;;5.75;;
15929;SDS011;8064;51.142;4.780;2023-05-02T11:52:55;6.70;;;6.10;;
15929;SDS011;8064;51.142;4.780;2023-05-02T11:55:21;8.10;;;6.60;;
15929;SDS011;8064;51.142;4.780;2023-05-02T11:57:47;6.77;;;6.17;;
15929;SDS011;8064;51.142;4.780;2023-05-02T12:00:13;6.97;;;6.23;;
15929;SDS011;8064;51.142;4.780;2023-05-02T12:02:40;6.47;;;5.80;;
15929;SDS011;8064;51.142;4.780;2023-05-02T12:05:07;7.07;;;6.23;;
15929;SDS011;8064;51.142;4.780;2023-05-02T12:07:36;6.93;;;6.27;;
15929;SDS011;8064;51.142;4.780;2023-05-02T12:10:02;6.90;;;6.20;;
15929;SDS011;8064;51.142;4.780;2023-05-02T12:12:30;6.97;;;6.17;;
15929;SDS011;8064;51.142;4.780;2023-05-02T12:14:56;6.60;;;6.00;;
15929;SDS011;8064;51.142;4.780;2023-05-02T12:17:22;6.37;;;5.77;;
15929;SDS011;8064;51.142;4.780;2023-05-02T12:19:48;10.03;;;6.67;;
15929;SDS011;8064;51.142;4.780;2023-05-02T12:22:15;5.87;;;5.37;;
15929;SDS011;8064;51.142;4.780;2023-05-02T12:24:41;8.17;;;5.40;;
15929;SDS011;8064;51.142;4.780;2023-05-02T12:27:10;7.23;;;5.47;;
15929;SDS011;8064;51.142;4.780;2023-05-02T12:35:19;7.73;;;6.03;;
15929;SDS011;8064;51.142;4.780;2023-05-02T12:37:46;5.70;;;5.20;;
15929;SDS011;8064;51.142;4.780;2023-05-02T12:40:24;7.77;;;6.67;;
15929;SDS011;8064;51.142;4.780;2023-05-02T12:45:35;8.30;;;6.07;;
15929;SDS011;8064;51.142;4.780;2023-05-02T12:48:01;7.40;;;6.03;;
15929;SDS011;8064;51.142;4.780;2023-05-02T12:50:46;6.97;;;5.63;;
15929;SDS011;8064;51.142;4.780;2023-05-02T12:53:12;6.57;;;5.97;;
15929;SDS011;8064;51.142;4.780;2023-05-02T12:55:38;6.57;;;5.97;;
15929;SDS011;8064;51.142;4.780;2023-05-02T12:58:06;5.67;;;5.17;;
15929;SDS011;8064;51.142;4.780;2023-05-02T13:00:36;7.03;;;6.00;;
15929;SDS011;8064;51.142;4.780;2023-05-02T13:03:03;6.97;;;5.63;;
15929;SDS011;8064;51.142;4.780;2023-05-02T13:05:29;7.10;;;5.97;;
15929;SDS011;8064;51.142;4.780;2023-05-02T13:07:55;7.03;;;5.97;;
15929;SDS011;8064;51.142;4.780;2023-05-02T13:10:22;5.87;;;5.37;;
15929;SDS011;8064;51.142;4.780;2023-05-02T13:12:50;6.53;;;5.90;;
15929;SDS011;8064;51.142;4.780;2023-05-02T13:15:16;8.53;;;6.27;;
15929;SDS011;8064;51.142;4.780;2023-05-02T13:17:43;10.40;;;6.57;;
15929;SDS011;8064;51.142;4.780;2023-05-02T13:20:09;8.43;;;5.73;;
15929;SDS011;8064;51.142;4.780;2023-05-02T13:22:35;7.53;;;6.20;;
15929;SDS011;8064;51.142;4.780;2023-05-02T13:25:02;6.80;;;6.10;;
15929;SDS011;8064;51.142;4.780;2023-05-02T13:27:29;6.50;;;5.37;;
15929;SDS011;8064;51.142;4.780;2023-05-02T13:29:54;6.57;;;5.97;;
15929;SDS011;8064;51.142;4.780;2023-05-02T13:32:20;6.90;;;6.20;;
15929;SDS011;8064;51.142;4.780;2023-05-02T13:34:46;6.33;;;5.73;;
15929;SDS011;8064;51.142;4.780;2023-05-02T13:37:12;6.23;;;5.73;;
15929;SDS011;8064;51.142;4.780;2023-05-02T13:39:38;8.03;;;5.97;;
15929;SDS011;8064;51.142;4.780;2023-05-02T13:42:04;9.97;;;6.27;;
15929;SDS011;8064;51.142;4.780;2023-05-02T13:44:30;6.90;;;6.33;;
15929;SDS011;8064;51.142;4.780;2023-05-02T13:46:56;6.07;;;5.57;;
15929;SDS011;8064;51.142;4.780;2023-05-02T13:49:22;5.50;;;5.10;;
15929;SDS011;8064;51.142;4.780;2023-05-02T13:51:48;8.93;;;6.17;;
15929;SDS011;8064;51.142;4.780;2023-05-02T13:54:15;6.47;;;5.43;;
15929;SDS011;8064;51.142;4.780;2023-05-02T13:56:41;8.63;;;6.47;;
15929;SDS011;8064;51.142;4.780;2023-05-02T13:59:07;6.70;;;6.10;;
15929;SDS011;8064;51.142;4.780;2023-05-02T14:01:33;6.70;;;6.10;;
15929;SDS011;8064;51.142;4.780;2023-05-02T14:04:00;6.93;;;6.07;;
15929;SDS011;8064;51.142;4.780;2023-05-02T14:06:31;6.40;;;5.80;;
15929;SDS011;8064;51.142;4.780;2023-05-02T14:08:57;6.63;;;6.17;;
15929;SDS011;8064;51.142;4.780;2023-05-02T14:11:23;6.97;;;6.10;;
15929;SDS011;8064;51.142;4.780;2023-05-02T14:13:48;9.47;;;6.27;;
15929;SDS011;8064;51.142;4.780;2023-05-02T14:16:14;6.83;;;6.17;;
15929;SDS011;8064;51.142;4.780;2023-05-02T14:18:40;8.00;;;6.70;;
15929;SDS011;8064;51.142;4.780;2023-05-02T14:21:06;8.63;;;6.63;;
15929;SDS011;8064;51.142;4.780;2023-05-02T14:23:32;6.27;;;5.63;;
15929;SDS011;8064;51.142;4.780;2023-05-02T14:25:59;8.07;;;6.00;;
15929;SDS011;8064;51.142;4.780;2023-05-02T14:28:26;9.17;;;5.83;;
15929;SDS011;8064;51.142;4.780;2023-05-02T14:30:52;6.30;;;5.70;;
15929;SDS011;8064;51.142;4.780;2023-05-02T14:33:17;6.67;;;5.93;;
15929;SDS011;8064;51.142;4.780;2023-05-02T14:35:43;6.80;;;6.10;;
15929;SDS011;8064;51.142;4.780;2023-05-02T14:38:09;6.90;;;5.73;;
15929;SDS011;8064;51.142;4.780;2023-05-02T14:40:35;6.73;;;6.00;;
15929;SDS011;8064;51.142;4.780;2023-05-02T14:43:02;7.27;;;6.10;;
15929;SDS011;8064;51.142;4.780;2023-05-02T14:45:27;6.90;;;6.20;;
15929;SDS011;8064;51.142;4.780;2023-05-02T14:47:53;8.23;;;6.20;;
15929;SDS011;8064;51.142;4.780;2023-05-02T14:50:19;6.07;;;5.40;;
15929;SDS011;8064;51.142;4.780;2023-05-02T14:52:45;8.27;;;6.13;;
15929;SDS011;8064;51.142;4.780;2023-05-02T14:55:11;6.50;;;5.30;;
15929;SDS011;8064;51.142;4.780;2023-05-02T14:57:37;6.50;;;5.93;;
15929;SDS011;8064;51.142;4.780;2023-05-02T15:00:03;6.83;;;6.23;;
15929;SDS011;8064;51.142;4.780;2023-05-02T15:02:32;6.33;;;5.20;;
15929;SDS011;8064;51.142;4.780;2023-05-02T15:04:58;7.10;;;5.37;;
15929;SDS011;8064;51.142;4.780;2023-05-02T15:07:24;7.37;;;5.57;;
15929;SDS011;8064;51.142;4.780;2023-05-02T15:09:50;7.37;;;6.27;;
15929;SDS011;8064;51.142;4.780;2023-05-02T15:12:16;7.97;;;6.30;;
15929;SDS011;8064;51.142;4.780;2023-05-02T15:14:42;6.83;;;5.20;;
15929;SDS011;8064;51.142;4.780;2023-05-02T15:17:08;6.90;;;6.10;;
15929;SDS011;8064;51.142;4.780;2023-05-02T15:19:33;6.30;;;5.70;;
15929;SDS011;8064;51.142;4.780;2023-05-02T15:21:59;7.50;;;5.63;;
15929;SDS011;8064;51.142;4.780;2023-05-02T15:24:25;6.70;;;6.10;;
15929;SDS011;8064;51.142;4.780;2023-05-02T15:26:51;8.53;;;5.57;;
15929;SDS011;8064;51.142;4.780;2023-05-02T15:29:17;8.70;;;5.83;;
15929;SDS011;8064;51.142;4.780;2023-05-02T15:31:43;6.47;;;5.87;;
15929;SDS011;8064;51.142;4.780;2023-05-02T15:34:09;7.30;;;6.17;;
15929;SDS011;8064;51.142;4.780;2023-05-02T15:36:35;6.33;;;5.73;;
15929;SDS011;8064;51.142;4.780;2023-05-02T15:39:03;6.23;;;5.43;;
15929;SDS011;8064;51.142;4.780;2023-05-02T15:41:30;6.67;;;5.80;;
15929;SDS011;8064;51.142;4.780;2023-05-02T15:43:57;7.90;;;6.10;;
15929;SDS011;8064;51.142;4.780;2023-05-02T15:46:23;10.50;;;6.37;;
15929;SDS011;8064;51.142;4.780;2023-05-02T15:48:50;9.53;;;5.80;;
15929;SDS011;8064;51.142;4.780;2023-05-02T15:51:15;6.73;;;5.77;;
15929;SDS011;8064;51.142;4.780;2023-05-02T15:53:42;7.63;;;5.70;;
15929;SDS011;8064;51.142;4.780;2023-05-02T15:56:09;7.40;;;6.10;;
15929;SDS011;8064;51.142;4.780;2023-05-02T15:58:36;8.77;;;5.90;;
15929;SDS011;8064;51.142;4.780;2023-05-02T16:01:03;7.97;;;5.83;;
15929;SDS011;8064;51.142;4.780;2023-05-02T16:03:29;6.53;;;5.93;;
15929;SDS011;8064;51.142;4.780;2023-05-02T16:05:55;7.43;;;6.33;;